sensor_id;sensor_type;location;lat;lon;timestamp;temperature;humidity
18268;DHT22;9260;49.998;19.880;2023-04-06T00:06:31;-2.60;1.00
18268;DHT22;9260;49.998;19.880;2023-04-06T00:16:35;-2.80;1.00
18268;DHT22;9260;49.998;19.880;2023-04-06T00:26:40;-2.90;1.00
18268;DHT22;9260;49.998;19.880;2023-04-06T00:36:44;-3.00;1.00
18268;DHT22;9260;49.998;19.880;2023-04-06T00:46:49;-3.10;1.00
18268;DHT22;9260;49.998;19.880;2023-04-06T00:56:53;-3.20;1.00
18268;DHT22;9260;49.998;19.880;2023-04-06T01:07:01;-3.40;1.00
18268;DHT22;9260;49.998;19.880;2023-04-06T01:17:14;-3.60;1.00
18268;DHT22;9260;49.998;19.880;2023-04-06T01:27:21;-3.80;1.00
18268;DHT22;9260;49.998;19.880;2023-04-06T01:37:49;-3.90;1.00
18268;DHT22;9260;49.998;19.880;2023-04-06T01:48:02;-4.20;1.00
18268;DHT22;9260;49.998;19.880;2023-04-06T01:58:07;-4.50;1.00
18268;DHT22;9260;49.998;19.880;2023-04-06T02:08:14;-4.80;1.00
18268;DHT22;9260;49.998;19.880;2023-04-06T02:18:18;-4.90;1.00
18268;DHT22;9260;49.998;19.880;2023-04-06T02:28:23;-5.10;1.00
18268;DHT22;9260;49.998;19.880;2023-04-06T02:38:28;-5.20;1.00
18268;DHT22;9260;49.998;19.880;2023-04-06T02:48:36;-5.30;1.00
18268;DHT22;9260;49.998;19.880;2023-04-06T02:58:41;-5.40;1.00
18268;DHT22;9260;49.998;19.880;2023-04-06T03:08:46;-5.50;1.00
18268;DHT22;9260;49.998;19.880;2023-04-06T03:18:50;-5.50;1.00
18268;DHT22;9260;49.998;19.880;2023-04-06T03:28:57;-5.60;1.00
18268;DHT22;9260;49.998;19.880;2023-04-06T03:39:05;-5.70;1.00
18268;DHT22;9260;49.998;19.880;2023-04-06T03:49:15;-5.60;1.00
18268;DHT22;9260;49.998;19.880;2023-04-06T03:59:23;-5.70;1.00
18268;DHT22;9260;49.998;19.880;2023-04-06T04:09:29;-5.60;1.00
18268;DHT22;9260;49.998;19.880;2023-04-06T04:19:33;-5.50;1.00
18268;DHT22;9260;49.998;19.880;2023-04-06T04:29:38;-5.40;1.00
18268;DHT22;9260;49.998;19.880;2023-04-06T04:39:45;-5.20;1.00
18268;DHT22;9260;49.998;19.880;2023-04-06T04:49:51;-4.80;1.00
18268;DHT22;9260;49.998;19.880;2023-04-06T04:59:58;-4.50;1.00
18268;DHT22;9260;49.998;19.880;2023-04-06T05:10:04;-4.00;1.00
18268;DHT22;9260;49.998;19.880;2023-04-06T05:20:15;-3.30;1.00
18268;DHT22;9260;49.998;19.880;2023-04-06T05:30:25;-2.60;1.00
18268;DHT22;9260;49.998;19.880;2023-04-06T05:40:29;-1.70;1.00
18268;DHT22;9260;49.998;19.880;2023-04-06T05:50:35;-0.80;1.00
18268;DHT22;9260;49.998;19.880;2023-04-06T06:00:40;-0.10;1.00
18268;DHT22;9260;49.998;19.880;2023-04-06T06:10:51;0.40;1.00
18268;DHT22;9260;49.998;19.880;2023-04-06T06:20:57;0.60;1.00
18268;DHT22;9260;49.998;19.880;2023-04-06T06:31:03;0.80;1.00
18268;DHT22;9260;49.998;19.880;2023-04-06T06:41:07;1.50;1.00
18268;DHT22;9260;49.998;19.880;2023-04-06T06:51:14;2.00;1.00
18268;DHT22;9260;49.998;19.880;2023-04-06T07:01:18;2.00;1.00
18268;DHT22;9260;49.998;19.880;2023-04-06T07:11:24;2.10;1.00
18268;DHT22;9260;49.998;19.880;2023-04-06T07:21:28;2.20;1.00
18268;DHT22;9260;49.998;19.880;2023-04-06T07:31:33;2.40;1.00
18268;DHT22;9260;49.998;19.880;2023-04-06T07:41:38;2.80;1.00
18268;DHT22;9260;49.998;19.880;2023-04-06T07:51:44;2.70;1.00
18268;DHT22;9260;49.998;19.880;2023-04-06T08:01:48;2.70;1.00
18268;DHT22;9260;49.998;19.880;2023-04-06T08:11:53;3.00;1.00
18268;DHT22;9260;49.998;19.880;2023-04-06T08:21:56;3.60;1.00
18268;DHT22;9260;49.998;19.880;2023-04-06T08:32:01;4.40;1.00
18268;DHT22;9260;49.998;19.880;2023-04-06T08:42:12;5.20;1.00
18268;DHT22;9260;49.998;19.880;2023-04-06T08:52:25;6.10;1.00
18268;DHT22;9260;49.998;19.880;2023-04-06T09:02:30;9.10;1.00
18268;DHT22;9260;49.998;19.880;2023-04-06T09:12:35;10.00;1.00
18268;DHT22;9260;49.998;19.880;2023-04-06T09:22:40;8.50;1.00
18268;DHT22;9260;49.998;19.880;2023-04-06T09:32:47;6.60;1.00
18268;DHT22;9260;49.998;19.880;2023-04-06T09:42:51;5.30;1.00
18268;DHT22;9260;49.998;19.880;2023-04-06T09:52:58;5.00;1.00
18268;DHT22;9260;49.998;19.880;2023-04-06T10:03:10;5.30;1.00
18268;DHT22;9260;49.998;19.880;2023-04-06T10:13:20;5.60;1.00
18268;DHT22;9260;49.998;19.880;2023-04-06T10:23:29;5.50;1.00
18268;DHT22;9260;49.998;19.880;2023-04-06T10:33:38;5.90;1.00
18268;DHT22;9260;49.998;19.880;2023-04-06T10:43:43;5.50;1.00
18268;DHT22;9260;49.998;19.880;2023-04-06T10:53:54;5.00;1.00
18268;DHT22;9260;49.998;19.880;2023-04-06T11:03:58;4.70;1.00
18268;DHT22;9260;49.998;19.880;2023-04-06T11:14:03;4.20;1.00
18268;DHT22;9260;49.998;19.880;2023-04-06T11:24:09;4.00;1.00
18268;DHT22;9260;49.998;19.880;2023-04-06T11:34:16;3.80;1.00
18268;DHT22;9260;49.998;19.880;2023-04-06T11:44:33;3.50;1.00
18268;DHT22;9260;49.998;19.880;2023-04-06T11:54:39;3.20;1.00
18268;DHT22;9260;49.998;19.880;2023-04-06T12:04:44;3.30;1.00
18268;DHT22;9260;49.998;19.880;2023-04-06T12:14:49;3.20;1.00
18268;DHT22;9260;49.998;19.880;2023-04-06T12:24:53;3.30;1.00
18268;DHT22;9260;49.998;19.880;2023-04-06T12:34:58;3.10;1.00
18268;DHT22;9260;49.998;19.880;2023-04-06T12:45:01;3.10;1.00
18268;DHT22;9260;49.998;19.880;2023-04-06T12:55:08;2.70;1.00
18268;DHT22;9260;49.998;19.880;2023-04-06T13:05:12;2.60;1.00
18268;DHT22;9260;49.998;19.880;2023-04-06T13:15:22;2.10;1.00
18268;DHT22;9260;49.998;19.880;2023-04-06T13:25:26;1.90;1.00
18268;DHT22;9260;49.998;19.880;2023-04-06T13:35:31;1.90;1.00
18268;DHT22;9260;49.998;19.880;2023-04-06T13:45:37;1.80;1.00
18268;DHT22;9260;49.998;19.880;2023-04-06T13:55:43;1.70;1.00
18268;DHT22;9260;49.998;19.880;2023-04-06T14:05:47;1.80;1.00
18268;DHT22;9260;49.998;19.880;2023-04-06T14:15:55;1.80;1.00
18268;DHT22;9260;49.998;19.880;2023-04-06T14:26:03;1.60;1.00
18268;DHT22;9260;49.998;19.880;2023-04-06T14:36:09;1.70;1.00
18268;DHT22;9260;49.998;19.880;2023-04-06T14:46:13;1.80;1.00
18268;DHT22;9260;49.998;19.880;2023-04-06T14:56:23;1.70;1.00
18268;DHT22;9260;49.998;19.880;2023-04-06T15:06:30;1.50;1.00
18268;DHT22;9260;49.998;19.880;2023-04-06T15:16:36;1.50;1.00
18268;DHT22;9260;49.998;19.880;2023-04-06T15:26:39;1.60;1.00
18268;DHT22;9260;49.998;19.880;2023-04-06T15:36:44;1.60;1.00
18268;DHT22;9260;49.998;19.880;2023-04-06T15:46:49;1.40;1.00
18268;DHT22;9260;49.998;19.880;2023-04-06T15:56:54;1.30;1.00
18268;DHT22;9260;49.998;19.880;2023-04-06T16:06:57;1.40;1.00
18268;DHT22;9260;49.998;19.880;2023-04-06T16:17:03;1.40;1.00
18268;DHT22;9260;49.998;19.880;2023-04-06T16:27:07;1.30;1.00
18268;DHT22;9260;49.998;19.880;2023-04-06T16:37:13;1.10;1.00
18268;DHT22;9260;49.998;19.880;2023-04-06T16:47:17;1.00;1.00
18268;DHT22;9260;49.998;19.880;2023-04-06T16:57:22;0.70;1.00
18268;DHT22;9260;49.998;19.880;2023-04-06T17:07:30;0.50;1.00
18268;DHT22;9260;49.998;19.880;2023-04-06T17:17:35;0.30;1.00
18268;DHT22;9260;49.998;19.880;2023-04-06T17:27:40;0.20;1.00
18268;DHT22;9260;49.998;19.880;2023-04-06T17:37:45;0.10;1.00
18268;DHT22;9260;49.998;19.880;2023-04-06T17:47:49;0.10;1.00
18268;DHT22;9260;49.998;19.880;2023-04-06T17:57:54;0.10;1.00
18268;DHT22;9260;49.998;19.880;2023-04-06T18:07:58;0.00;1.00
18268;DHT22;9260;49.998;19.880;2023-04-06T18:18:04;0.00;1.00
18268;DHT22;9260;49.998;19.880;2023-04-06T18:28:09;0.10;1.00
18268;DHT22;9260;49.998;19.880;2023-04-06T18:38:14;0.10;1.00
18268;DHT22;9260;49.998;19.880;2023-04-06T18:48:17;0.10;1.00
18268;DHT22;9260;49.998;19.880;2023-04-06T18:58:23;0.10;1.00
18268;DHT22;9260;49.998;19.880;2023-04-06T19:08:28;0.00;1.00
18268;DHT22;9260;49.998;19.880;2023-04-06T19:18:33;0.00;1.00
18268;DHT22;9260;49.998;19.880;2023-04-06T19:28:38;0.00;1.00
18268;DHT22;9260;49.998;19.880;2023-04-06T19:38:44;-0.10;1.00
18268;DHT22;9260;49.998;19.880;2023-04-06T19:48:47;-0.10;1.00
18268;DHT22;9260;49.998;19.880;2023-04-06T19:58:53;-0.10;1.00
18268;DHT22;9260;49.998;19.880;2023-04-06T20:08:56;-0.20;1.00
18268;DHT22;9260;49.998;19.880;2023-04-06T20:19:02;-0.20;1.00
18268;DHT22;9260;49.998;19.880;2023-04-06T20:29:06;-0.20;1.00
18268;DHT22;9260;49.998;19.880;2023-04-06T20:39:11;-0.20;1.00
18268;DHT22;9260;49.998;19.880;2023-04-06T20:49:15;-0.20;1.00
18268;DHT22;9260;49.998;19.880;2023-04-06T20:59:20;-0.20;1.00
18268;DHT22;9260;49.998;19.880;2023-04-06T21:09:24;-0.20;1.00
18268;DHT22;9260;49.998;19.880;2023-04-06T21:19:30;-0.20;1.00
18268;DHT22;9260;49.998;19.880;2023-04-06T21:29:34;-0.20;1.00
18268;DHT22;9260;49.998;19.880;2023-04-06T21:39:39;-0.20;1.00
18268;DHT22;9260;49.998;19.880;2023-04-06T21:49:43;-0.20;1.00
18268;DHT22;9260;49.998;19.880;2023-04-06T21:59:48;-0.20;1.00
18268;DHT22;9260;49.998;19.880;2023-04-06T22:09:52;-0.30;1.00
18268;DHT22;9260;49.998;19.880;2023-04-06T22:19:57;-0.30;1.00
18268;DHT22;9260;49.998;19.880;2023-04-06T22:30:00;-0.20;1.00
18268;DHT22;9260;49.998;19.880;2023-04-06T22:40:07;-0.20;1.00
18268;DHT22;9260;49.998;19.880;2023-04-06T22:50:11;-0.30;1.00
18268;DHT22;9260;49.998;19.880;2023-04-06T23:00:18;-0.30;1.00
18268;DHT22;9260;49.998;19.880;2023-04-06T23:10:22;-0.20;1.00
18268;DHT22;9260;49.998;19.880;2023-04-06T23:20:27;-0.30;1.00
18268;DHT22;9260;49.998;19.880;2023-04-06T23:30:31;-0.30;1.00
18268;DHT22;9260;49.998;19.880;2023-04-06T23:40:37;-0.20;1.00
18268;DHT22;9260;49.998;19.880;2023-04-06T23:50:42;-0.20;1.00
